sensor_id;sensor_type;location;lat;lon;timestamp;P1;durP1;ratioP1;P2;durP2;ratioP2
21258;SDS011;10787;53.364;-1.480;2023-12-14T00:01:16;21.27;;;9.27;;
21258;SDS011;10787;53.364;-1.480;2023-12-14T00:04:00;22.53;;;9.10;;
21258;SDS011;10787;53.364;-1.480;2023-12-14T00:06:47;22.40;;;9.17;;
21258;SDS011;10787;53.364;-1.480;2023-12-14T00:09:32;20.90;;;9.33;;
21258;SDS011;10787;53.364;-1.480;2023-12-14T00:12:16;21.80;;;9.70;;
21258;SDS011;10787;53.364;-1.480;2023-12-14T00:15:01;22.90;;;9.37;;
21258;SDS011;10787;53.364;-1.480;2023-12-14T00:17:45;18.77;;;8.37;;
21258;SDS011;10787;53.364;-1.480;2023-12-14T00:20:29;19.90;;;8.00;;
21258;SDS011;10787;53.364;-1.480;2023-12-14T00:23:14;19.23;;;7.77;;
21258;SDS011;10787;53.364;-1.480;2023-12-14T00:25:58;17.27;;;7.67;;
21258;SDS011;10787;53.364;-1.480;2023-12-14T00:28:43;15.27;;;7.17;;
21258;SDS011;10787;53.364;-1.480;2023-12-14T00:31:27;13.33;;;6.33;;
21258;SDS011;10787;53.364;-1.480;2023-12-14T00:34:12;13.30;;;5.57;;
21258;SDS011;10787;53.364;-1.480;2023-12-14T00:36:56;18.07;;;6.60;;
21258;SDS011;10787;53.364;-1.480;2023-12-14T00:39:40;14.90;;;6.03;;
21258;SDS011;10787;53.364;-1.480;2023-12-14T00:42:24;14.03;;;5.70;;
21258;SDS011;10787;53.364;-1.480;2023-12-14T00:45:09;12.93;;;5.60;;
21258;SDS011;10787;53.364;-1.480;2023-12-14T00:47:54;15.17;;;5.30;;
21258;SDS011;10787;53.364;-1.480;2023-12-14T00:50:38;13.40;;;5.73;;
21258;SDS011;10787;53.364;-1.480;2023-12-14T00:53:22;14.07;;;5.97;;
21258;SDS011;10787;53.364;-1.480;2023-12-14T00:56:07;11.20;;;5.40;;
21258;SDS011;10787;53.364;-1.480;2023-12-14T00:58:54;11.47;;;5.47;;
21258;SDS011;10787;53.364;-1.480;2023-12-14T01:01:40;11.40;;;4.80;;
21258;SDS011;10787;53.364;-1.480;2023-12-14T01:04:24;10.40;;;4.70;;
21258;SDS011;10787;53.364;-1.480;2023-12-14T01:07:08;11.37;;;4.97;;
21258;SDS011;10787;53.364;-1.480;2023-12-14T01:09:53;12.37;;;5.63;;
21258;SDS011;10787;53.364;-1.480;2023-12-14T01:12:37;15.43;;;4.80;;
21258;SDS011;10787;53.364;-1.480;2023-12-14T01:15:21;11.43;;;5.10;;
21258;SDS011;10787;53.364;-1.480;2023-12-14T01:18:06;11.37;;;5.67;;
21258;SDS011;10787;53.364;-1.480;2023-12-14T01:20:50;13.03;;;5.23;;
21258;SDS011;10787;53.364;-1.480;2023-12-14T01:23:35;13.63;;;5.07;;
21258;SDS011;10787;53.364;-1.480;2023-12-14T01:26:19;12.00;;;5.30;;
21258;SDS011;10787;53.364;-1.480;2023-12-14T01:29:04;12.47;;;5.33;;
21258;SDS011;10787;53.364;-1.480;2023-12-14T01:31:48;12.43;;;5.00;;
21258;SDS011;10787;53.364;-1.480;2023-12-14T01:34:33;11.60;;;4.97;;
21258;SDS011;10787;53.364;-1.480;2023-12-14T01:37:17;10.97;;;3.97;;
21258;SDS011;10787;53.364;-1.480;2023-12-14T01:40:01;11.77;;;4.13;;
21258;SDS011;10787;53.364;-1.480;2023-12-14T01:42:45;9.70;;;4.00;;
21258;SDS011;10787;53.364;-1.480;2023-12-14T01:45:30;10.03;;;4.27;;
21258;SDS011;10787;53.364;-1.480;2023-12-14T01:48:14;9.83;;;4.20;;
21258;SDS011;10787;53.364;-1.480;2023-12-14T01:50:58;11.73;;;4.73;;
21258;SDS011;10787;53.364;-1.480;2023-12-14T01:53:43;13.27;;;5.03;;
21258;SDS011;10787;53.364;-1.480;2023-12-14T01:56:27;14.27;;;5.17;;
21258;SDS011;10787;53.364;-1.480;2023-12-14T01:59:12;12.73;;;5.07;;
21258;SDS011;10787;53.364;-1.480;2023-12-14T02:01:57;9.33;;;4.90;;
21258;SDS011;10787;53.364;-1.480;2023-12-14T02:04:43;11.17;;;4.90;;
21258;SDS011;10787;53.364;-1.480;2023-12-14T02:07:27;8.27;;;4.50;;
21258;SDS011;10787;53.364;-1.480;2023-12-14T02:10:11;9.47;;;4.30;;
21258;SDS011;10787;53.364;-1.480;2023-12-14T02:12:56;12.93;;;4.53;;
21258;SDS011;10787;53.364;-1.480;2023-12-14T02:15:41;10.73;;;4.60;;
21258;SDS011;10787;53.364;-1.480;2023-12-14T02:18:25;10.03;;;4.53;;
21258;SDS011;10787;53.364;-1.480;2023-12-14T02:21:10;11.63;;;4.10;;
21258;SDS011;10787;53.364;-1.480;2023-12-14T02:23:54;9.07;;;4.57;;
21258;SDS011;10787;53.364;-1.480;2023-12-14T02:26:39;10.73;;;3.90;;
21258;SDS011;10787;53.364;-1.480;2023-12-14T02:29:23;8.73;;;3.40;;
21258;SDS011;10787;53.364;-1.480;2023-12-14T02:32:07;7.63;;;3.53;;
21258;SDS011;10787;53.364;-1.480;2023-12-14T02:34:52;8.07;;;3.40;;
21258;SDS011;10787;53.364;-1.480;2023-12-14T02:37:36;11.30;;;3.60;;
21258;SDS011;10787;53.364;-1.480;2023-12-14T02:40:21;9.23;;;3.70;;
21258;SDS011;10787;53.364;-1.480;2023-12-14T02:43:05;9.67;;;3.80;;
21258;SDS011;10787;53.364;-1.480;2023-12-14T02:45:49;8.97;;;3.77;;
21258;SDS011;10787;53.364;-1.480;2023-12-14T02:48:33;8.47;;;3.37;;
21258;SDS011;10787;53.364;-1.480;2023-12-14T02:51:18;9.40;;;4.03;;
21258;SDS011;10787;53.364;-1.480;2023-12-14T02:54:02;9.23;;;4.00;;
21258;SDS011;10787;53.364;-1.480;2023-12-14T02:56:46;8.30;;;3.90;;
21258;SDS011;10787;53.364;-1.480;2023-12-14T02:59:31;10.33;;;3.63;;
21258;SDS011;10787;53.364;-1.480;2023-12-14T03:02:15;11.13;;;3.80;;
21258;SDS011;10787;53.364;-1.480;2023-12-14T03:05:00;8.87;;;3.80;;
21258;SDS011;10787;53.364;-1.480;2023-12-14T03:07:44;8.00;;;3.63;;
21258;SDS011;10787;53.364;-1.480;2023-12-14T03:10:28;10.17;;;3.70;;
21258;SDS011;10787;53.364;-1.480;2023-12-14T03:13:12;8.37;;;3.73;;
21258;SDS011;10787;53.364;-1.480;2023-12-14T03:15:56;8.73;;;3.10;;
21258;SDS011;10787;53.364;-1.480;2023-12-14T03:18:41;9.07;;;3.50;;
21258;SDS011;10787;53.364;-1.480;2023-12-14T03:21:25;10.57;;;4.03;;
21258;SDS011;10787;53.364;-1.480;2023-12-14T03:24:09;5.93;;;3.47;;
21258;SDS011;10787;53.364;-1.480;2023-12-14T03:26:53;9.13;;;3.57;;
21258;SDS011;10787;53.364;-1.480;2023-12-14T03:29:37;6.83;;;3.40;;
21258;SDS011;10787;53.364;-1.480;2023-12-14T03:32:21;7.80;;;3.20;;
21258;SDS011;10787;53.364;-1.480;2023-12-14T03:35:05;8.40;;;2.93;;
21258;SDS011;10787;53.364;-1.480;2023-12-14T03:37:52;6.00;;;3.00;;
21258;SDS011;10787;53.364;-1.480;2023-12-14T03:40:36;10.50;;;3.10;;
21258;SDS011;10787;53.364;-1.480;2023-12-14T03:43:20;8.23;;;3.60;;
21258;SDS011;10787;53.364;-1.480;2023-12-14T03:46:04;8.97;;;3.20;;
21258;SDS011;10787;53.364;-1.480;2023-12-14T03:48:49;5.80;;;2.83;;
21258;SDS011;10787;53.364;-1.480;2023-12-14T03:51:33;6.47;;;2.80;;
21258;SDS011;10787;53.364;-1.480;2023-12-14T03:54:18;7.13;;;3.00;;
21258;SDS011;10787;53.364;-1.480;2023-12-14T03:57:02;6.60;;;2.47;;
21258;SDS011;10787;53.364;-1.480;2023-12-14T03:59:47;4.00;;;2.00;;
21258;SDS011;10787;53.364;-1.480;2023-12-14T04:02:31;5.77;;;2.40;;
21258;SDS011;10787;53.364;-1.480;2023-12-14T04:05:16;7.33;;;2.20;;
21258;SDS011;10787;53.364;-1.480;2023-12-14T04:08:00;5.87;;;2.30;;
21258;SDS011;10787;53.364;-1.480;2023-12-14T04:10:45;6.07;;;2.30;;
21258;SDS011;10787;53.364;-1.480;2023-12-14T04:13:29;6.33;;;2.50;;
21258;SDS011;10787;53.364;-1.480;2023-12-14T04:16:14;4.80;;;2.17;;
21258;SDS011;10787;53.364;-1.480;2023-12-14T04:18:57;5.13;;;2.40;;
21258;SDS011;10787;53.364;-1.480;2023-12-14T04:21:42;5.57;;;2.43;;
21258;SDS011;10787;53.364;-1.480;2023-12-14T04:24:26;6.13;;;2.10;;
21258;SDS011;10787;53.364;-1.480;2023-12-14T04:27:10;8.23;;;2.47;;
21258;SDS011;10787;53.364;-1.480;2023-12-14T04:29:54;7.47;;;2.10;;
21258;SDS011;10787;53.364;-1.480;2023-12-14T04:32:39;4.83;;;2.17;;
21258;SDS011;10787;53.364;-1.480;2023-12-14T04:35:23;6.10;;;2.23;;
21258;SDS011;10787;53.364;-1.480;2023-12-14T04:38:08;5.27;;;2.07;;
21258;SDS011;10787;53.364;-1.480;2023-12-14T04:40:52;8.20;;;2.23;;
21258;SDS011;10787;53.364;-1.480;2023-12-14T04:43:36;4.97;;;2.13;;
21258;SDS011;10787;53.364;-1.480;2023-12-14T04:46:20;7.23;;;2.33;;
21258;SDS011;10787;53.364;-1.480;2023-12-14T04:49:04;7.13;;;2.50;;
21258;SDS011;10787;53.364;-1.480;2023-12-14T04:51:49;5.33;;;1.97;;
21258;SDS011;10787;53.364;-1.480;2023-12-14T04:54:33;5.93;;;1.90;;
21258;SDS011;10787;53.364;-1.480;2023-12-14T04:57:21;7.87;;;2.30;;
21258;SDS011;10787;53.364;-1.480;2023-12-14T05:00:05;8.37;;;2.10;;
21258;SDS011;10787;53.364;-1.480;2023-12-14T05:02:51;7.53;;;2.23;;
21258;SDS011;10787;53.364;-1.480;2023-12-14T05:05:35;7.17;;;2.50;;
21258;SDS011;10787;53.364;-1.480;2023-12-14T05:08:20;7.93;;;2.57;;
21258;SDS011;10787;53.364;-1.480;2023-12-14T05:11:03;5.53;;;2.40;;
21258;SDS011;10787;53.364;-1.480;2023-12-14T05:13:48;8.17;;;2.90;;
21258;SDS011;10787;53.364;-1.480;2023-12-14T05:16:33;5.17;;;2.60;;
21258;SDS011;10787;53.364;-1.480;2023-12-14T05:19:17;9.70;;;2.93;;
21258;SDS011;10787;53.364;-1.480;2023-12-14T05:22:02;9.50;;;2.90;;
21258;SDS011;10787;53.364;-1.480;2023-12-14T05:24:47;5.23;;;2.30;;
21258;SDS011;10787;53.364;-1.480;2023-12-14T05:27:31;7.10;;;2.80;;
21258;SDS011;10787;53.364;-1.480;2023-12-14T05:30:15;9.03;;;2.60;;
21258;SDS011;10787;53.364;-1.480;2023-12-14T05:33:00;8.37;;;2.63;;
21258;SDS011;10787;53.364;-1.480;2023-12-14T05:35:45;9.30;;;3.17;;
21258;SDS011;10787;53.364;-1.480;2023-12-14T05:38:30;8.03;;;2.50;;
21258;SDS011;10787;53.364;-1.480;2023-12-14T05:41:15;7.93;;;3.00;;
21258;SDS011;10787;53.364;-1.480;2023-12-14T05:43:59;6.57;;;3.10;;
21258;SDS011;10787;53.364;-1.480;2023-12-14T05:46:43;7.73;;;3.30;;
21258;SDS011;10787;53.364;-1.480;2023-12-14T05:49:27;11.20;;;3.27;;
21258;SDS011;10787;53.364;-1.480;2023-12-14T05:52:11;7.17;;;2.80;;
21258;SDS011;10787;53.364;-1.480;2023-12-14T05:54:56;9.30;;;3.37;;
21258;SDS011;10787;53.364;-1.480;2023-12-14T05:57:40;9.60;;;3.60;;
21258;SDS011;10787;53.364;-1.480;2023-12-14T06:00:24;8.93;;;3.80;;
21258;SDS011;10787;53.364;-1.480;2023-12-14T06:03:08;9.93;;;3.50;;
21258;SDS011;10787;53.364;-1.480;2023-12-14T06:05:53;8.17;;;4.40;;
21258;SDS011;10787;53.364;-1.480;2023-12-14T06:08:37;8.20;;;3.93;;
21258;SDS011;10787;53.364;-1.480;2023-12-14T06:11:21;7.87;;;3.67;;
21258;SDS011;10787;53.364;-1.480;2023-12-14T06:14:06;9.10;;;3.80;;
21258;SDS011;10787;53.364;-1.480;2023-12-14T06:16:51;8.30;;;3.87;;
21258;SDS011;10787;53.364;-1.480;2023-12-14T06:19:35;8.30;;;3.63;;
21258;SDS011;10787;53.364;-1.480;2023-12-14T06:22:19;6.47;;;3.30;;
21258;SDS011;10787;53.364;-1.480;2023-12-14T06:25:04;6.40;;;3.00;;
21258;SDS011;10787;53.364;-1.480;2023-12-14T06:27:49;8.17;;;3.40;;
21258;SDS011;10787;53.364;-1.480;2023-12-14T06:30:33;8.03;;;3.30;;
21258;SDS011;10787;53.364;-1.480;2023-12-14T06:33:17;7.23;;;3.60;;
21258;SDS011;10787;53.364;-1.480;2023-12-14T06:36:05;6.90;;;2.90;;
21258;SDS011;10787;53.364;-1.480;2023-12-14T06:38:51;7.57;;;2.90;;
21258;SDS011;10787;53.364;-1.480;2023-12-14T06:41:35;6.90;;;2.80;;
21258;SDS011;10787;53.364;-1.480;2023-12-14T06:44:19;6.37;;;2.87;;
21258;SDS011;10787;53.364;-1.480;2023-12-14T06:47:03;5.90;;;3.10;;
21258;SDS011;10787;53.364;-1.480;2023-12-14T06:49:47;11.63;;;4.10;;
21258;SDS011;10787;53.364;-1.480;2023-12-14T06:52:32;8.43;;;3.07;;
21258;SDS011;10787;53.364;-1.480;2023-12-14T06:55:16;11.13;;;3.23;;
21258;SDS011;10787;53.364;-1.480;2023-12-14T06:58:00;8.40;;;3.37;;
21258;SDS011;10787;53.364;-1.480;2023-12-14T07:00:44;5.90;;;3.07;;
21258;SDS011;10787;53.364;-1.480;2023-12-14T07:03:29;9.70;;;3.10;;
21258;SDS011;10787;53.364;-1.480;2023-12-14T07:06:13;5.30;;;2.93;;
21258;SDS011;10787;53.364;-1.480;2023-12-14T07:08:58;5.67;;;2.90;;
21258;SDS011;10787;53.364;-1.480;2023-12-14T07:11:42;7.20;;;2.83;;
21258;SDS011;10787;53.364;-1.480;2023-12-14T07:14:26;7.53;;;3.13;;
21258;SDS011;10787;53.364;-1.480;2023-12-14T07:17:10;8.63;;;3.23;;
21258;SDS011;10787;53.364;-1.480;2023-12-14T07:19:55;8.90;;;3.07;;
21258;SDS011;10787;53.364;-1.480;2023-12-14T07:22:39;7.03;;;3.07;;
21258;SDS011;10787;53.364;-1.480;2023-12-14T07:25:23;8.97;;;3.10;;
21258;SDS011;10787;53.364;-1.480;2023-12-14T07:28:07;7.90;;;3.53;;
21258;SDS011;10787;53.364;-1.480;2023-12-14T07:30:52;11.27;;;3.47;;
21258;SDS011;10787;53.364;-1.480;2023-12-14T07:33:37;6.00;;;3.47;;
21258;SDS011;10787;53.364;-1.480;2023-12-14T07:36:21;7.67;;;3.53;;
21258;SDS011;10787;53.364;-1.480;2023-12-14T07:39:06;8.70;;;3.80;;
21258;SDS011;10787;53.364;-1.480;2023-12-14T07:41:52;8.03;;;3.87;;
21258;SDS011;10787;53.364;-1.480;2023-12-14T07:44:36;8.93;;;4.40;;
21258;SDS011;10787;53.364;-1.480;2023-12-14T07:47:21;10.57;;;4.90;;
21258;SDS011;10787;53.364;-1.480;2023-12-14T07:50:05;10.80;;;4.50;;
21258;SDS011;10787;53.364;-1.480;2023-12-14T07:52:50;10.80;;;4.43;;
21258;SDS011;10787;53.364;-1.480;2023-12-14T07:55:34;10.00;;;4.30;;
21258;SDS011;10787;53.364;-1.480;2023-12-14T07:58:19;9.23;;;4.43;;
21258;SDS011;10787;53.364;-1.480;2023-12-14T08:01:03;9.67;;;5.20;;
21258;SDS011;10787;53.364;-1.480;2023-12-14T08:03:47;9.63;;;4.70;;
21258;SDS011;10787;53.364;-1.480;2023-12-14T08:06:31;11.23;;;5.73;;
21258;SDS011;10787;53.364;-1.480;2023-12-14T08:09:16;9.67;;;5.23;;
21258;SDS011;10787;53.364;-1.480;2023-12-14T08:12:00;11.77;;;6.10;;
21258;SDS011;10787;53.364;-1.480;2023-12-14T08:14:44;11.20;;;5.80;;
21258;SDS011;10787;53.364;-1.480;2023-12-14T08:17:28;11.37;;;5.93;;
21258;SDS011;10787;53.364;-1.480;2023-12-14T08:20:13;11.67;;;6.53;;
21258;SDS011;10787;53.364;-1.480;2023-12-14T08:22:58;15.83;;;7.40;;
21258;SDS011;10787;53.364;-1.480;2023-12-14T08:25:42;11.17;;;6.83;;
21258;SDS011;10787;53.364;-1.480;2023-12-14T08:28:26;13.07;;;6.70;;
21258;SDS011;10787;53.364;-1.480;2023-12-14T08:31:10;12.97;;;7.03;;
21258;SDS011;10787;53.364;-1.480;2023-12-14T08:33:55;12.20;;;7.47;;
21258;SDS011;10787;53.364;-1.480;2023-12-14T08:36:40;9.97;;;6.40;;
21258;SDS011;10787;53.364;-1.480;2023-12-14T08:39:23;9.03;;;5.33;;
21258;SDS011;10787;53.364;-1.480;2023-12-14T08:42:10;7.33;;;5.33;;
21258;SDS011;10787;53.364;-1.480;2023-12-14T08:44:56;8.97;;;5.80;;
21258;SDS011;10787;53.364;-1.480;2023-12-14T08:47:40;8.73;;;5.10;;
21258;SDS011;10787;53.364;-1.480;2023-12-14T08:50:25;7.80;;;5.07;;
21258;SDS011;10787;53.364;-1.480;2023-12-14T08:53:12;7.90;;;4.60;;
21258;SDS011;10787;53.364;-1.480;2023-12-14T08:55:56;7.50;;;5.10;;
21258;SDS011;10787;53.364;-1.480;2023-12-14T08:58:40;9.63;;;5.50;;
21258;SDS011;10787;53.364;-1.480;2023-12-14T09:01:24;8.47;;;5.57;;
21258;SDS011;10787;53.364;-1.480;2023-12-14T09:04:08;9.33;;;5.50;;
21258;SDS011;10787;53.364;-1.480;2023-12-14T09:06:52;9.77;;;5.87;;
21258;SDS011;10787;53.364;-1.480;2023-12-14T09:09:37;10.63;;;5.90;;
21258;SDS011;10787;53.364;-1.480;2023-12-14T09:12:21;11.00;;;5.93;;
21258;SDS011;10787;53.364;-1.480;2023-12-14T09:15:06;8.07;;;5.73;;
21258;SDS011;10787;53.364;-1.480;2023-12-14T09:17:50;10.87;;;5.97;;
21258;SDS011;10787;53.364;-1.480;2023-12-14T09:20:35;8.40;;;5.60;;
21258;SDS011;10787;53.364;-1.480;2023-12-14T09:23:21;9.03;;;5.30;;
21258;SDS011;10787;53.364;-1.480;2023-12-14T09:26:05;8.57;;;5.50;;
21258;SDS011;10787;53.364;-1.480;2023-12-14T09:28:49;7.67;;;5.27;;
21258;SDS011;10787;53.364;-1.480;2023-12-14T09:31:33;8.63;;;5.00;;
21258;SDS011;10787;53.364;-1.480;2023-12-14T09:34:18;7.37;;;4.90;;
21258;SDS011;10787;53.364;-1.480;2023-12-14T09:37:02;6.63;;;4.20;;
21258;SDS011;10787;53.364;-1.480;2023-12-14T09:39:46;6.53;;;3.77;;
21258;SDS011;10787;53.364;-1.480;2023-12-14T09:42:34;5.07;;;3.30;;
21258;SDS011;10787;53.364;-1.480;2023-12-14T09:45:27;4.33;;;2.93;;
21258;SDS011;10787;53.364;-1.480;2023-12-14T09:48:12;4.80;;;2.70;;
21258;SDS011;10787;53.364;-1.480;2023-12-14T09:50:58;3.53;;;2.60;;
21258;SDS011;10787;53.364;-1.480;2023-12-14T09:53:43;4.07;;;2.10;;
21258;SDS011;10787;53.364;-1.480;2023-12-14T09:56:27;3.67;;;2.57;;
21258;SDS011;10787;53.364;-1.480;2023-12-14T09:59:11;3.00;;;2.20;;
21258;SDS011;10787;53.364;-1.480;2023-12-14T10:02:09;3.40;;;2.30;;
21258;SDS011;10787;53.364;-1.480;2023-12-14T10:04:54;2.60;;;1.90;;
21258;SDS011;10787;53.364;-1.480;2023-12-14T10:07:40;3.00;;;1.87;;
21258;SDS011;10787;53.364;-1.480;2023-12-14T10:10:28;2.90;;;1.77;;
21258;SDS011;10787;53.364;-1.480;2023-12-14T10:13:12;2.30;;;1.90;;
21258;SDS011;10787;53.364;-1.480;2023-12-14T10:15:57;2.23;;;1.87;;
21258;SDS011;10787;53.364;-1.480;2023-12-14T10:18:43;2.40;;;1.77;;
21258;SDS011;10787;53.364;-1.480;2023-12-14T10:21:27;3.40;;;2.23;;
21258;SDS011;10787;53.364;-1.480;2023-12-14T10:24:13;3.60;;;2.30;;
21258;SDS011;10787;53.364;-1.480;2023-12-14T10:26:57;4.87;;;3.63;;
21258;SDS011;10787;53.364;-1.480;2023-12-14T10:29:41;2.97;;;2.37;;
21258;SDS011;10787;53.364;-1.480;2023-12-14T10:32:28;2.67;;;2.00;;
21258;SDS011;10787;53.364;-1.480;2023-12-14T10:35:13;2.90;;;1.80;;
21258;SDS011;10787;53.364;-1.480;2023-12-14T10:38:03;3.13;;;2.40;;
21258;SDS011;10787;53.364;-1.480;2023-12-14T10:40:48;4.87;;;3.37;;
21258;SDS011;10787;53.364;-1.480;2023-12-14T10:43:36;3.87;;;2.97;;
21258;SDS011;10787;53.364;-1.480;2023-12-14T10:46:20;3.10;;;2.40;;
21258;SDS011;10787;53.364;-1.480;2023-12-14T10:49:05;3.00;;;2.57;;
21258;SDS011;10787;53.364;-1.480;2023-12-14T10:51:50;2.73;;;1.80;;
21258;SDS011;10787;53.364;-1.480;2023-12-14T10:54:38;2.50;;;1.77;;
21258;SDS011;10787;53.364;-1.480;2023-12-14T10:57:25;3.00;;;2.47;;
21258;SDS011;10787;53.364;-1.480;2023-12-14T11:00:09;2.50;;;1.90;;
21258;SDS011;10787;53.364;-1.480;2023-12-14T11:02:54;3.37;;;2.00;;
21258;SDS011;10787;53.364;-1.480;2023-12-14T11:05:39;3.13;;;2.30;;
21258;SDS011;10787;53.364;-1.480;2023-12-14T11:08:23;3.10;;;2.30;;
21258;SDS011;10787;53.364;-1.480;2023-12-14T11:11:07;4.03;;;2.70;;
21258;SDS011;10787;53.364;-1.480;2023-12-14T11:13:54;3.80;;;3.10;;
21258;SDS011;10787;53.364;-1.480;2023-12-14T11:16:38;4.37;;;3.00;;
21258;SDS011;10787;53.364;-1.480;2023-12-14T11:19:32;5.63;;;3.33;;
21258;SDS011;10787;53.364;-1.480;2023-12-14T11:22:24;4.10;;;3.10;;
21258;SDS011;10787;53.364;-1.480;2023-12-14T11:25:10;2.70;;;2.10;;
21258;SDS011;10787;53.364;-1.480;2023-12-14T11:27:54;3.90;;;2.13;;
21258;SDS011;10787;53.364;-1.480;2023-12-14T11:30:47;3.50;;;2.20;;
21258;SDS011;10787;53.364;-1.480;2023-12-14T11:33:32;3.20;;;2.27;;
21258;SDS011;10787;53.364;-1.480;2023-12-14T11:36:17;3.83;;;2.63;;
21258;SDS011;10787;53.364;-1.480;2023-12-14T11:39:02;3.57;;;2.50;;
21258;SDS011;10787;53.364;-1.480;2023-12-14T11:42:01;5.30;;;2.63;;
21258;SDS011;10787;53.364;-1.480;2023-12-14T11:44:46;5.33;;;3.20;;
21258;SDS011;10787;53.364;-1.480;2023-12-14T11:47:31;4.90;;;2.97;;
21258;SDS011;10787;53.364;-1.480;2023-12-14T11:50:15;6.50;;;3.30;;
21258;SDS011;10787;53.364;-1.480;2023-12-14T11:53:00;8.10;;;3.53;;
21258;SDS011;10787;53.364;-1.480;2023-12-14T11:55:47;4.87;;;3.37;;
21258;SDS011;10787;53.364;-1.480;2023-12-14T11:58:32;5.63;;;4.23;;
21258;SDS011;10787;53.364;-1.480;2023-12-14T12:01:19;7.60;;;6.00;;
21258;SDS011;10787;53.364;-1.480;2023-12-14T12:04:11;6.90;;;5.27;;
21258;SDS011;10787;53.364;-1.480;2023-12-14T12:07:03;7.13;;;5.30;;
21258;SDS011;10787;53.364;-1.480;2023-12-14T12:09:50;7.53;;;4.97;;
21258;SDS011;10787;53.364;-1.480;2023-12-14T12:12:35;7.23;;;5.17;;
21258;SDS011;10787;53.364;-1.480;2023-12-14T12:15:20;7.07;;;4.80;;
21258;SDS011;10787;53.364;-1.480;2023-12-14T12:18:05;7.30;;;4.93;;
21258;SDS011;10787;53.364;-1.480;2023-12-14T12:20:51;5.70;;;4.40;;
21258;SDS011;10787;53.364;-1.480;2023-12-14T12:23:36;7.17;;;5.43;;
21258;SDS011;10787;53.364;-1.480;2023-12-14T12:26:20;6.67;;;4.60;;
21258;SDS011;10787;53.364;-1.480;2023-12-14T12:29:05;5.37;;;4.33;;
21258;SDS011;10787;53.364;-1.480;2023-12-14T12:31:50;7.50;;;4.37;;
21258;SDS011;10787;53.364;-1.480;2023-12-14T12:34:35;6.13;;;4.50;;
21258;SDS011;10787;53.364;-1.480;2023-12-14T12:37:19;6.03;;;4.80;;
21258;SDS011;10787;53.364;-1.480;2023-12-14T12:40:03;5.80;;;4.43;;
21258;SDS011;10787;53.364;-1.480;2023-12-14T12:42:49;6.17;;;4.70;;
21258;SDS011;10787;53.364;-1.480;2023-12-14T12:45:34;9.47;;;4.90;;
21258;SDS011;10787;53.364;-1.480;2023-12-14T12:48:18;6.27;;;4.73;;
21258;SDS011;10787;53.364;-1.480;2023-12-14T12:51:03;8.33;;;5.03;;
21258;SDS011;10787;53.364;-1.480;2023-12-14T12:53:47;7.30;;;5.13;;
21258;SDS011;10787;53.364;-1.480;2023-12-14T12:56:32;8.57;;;4.93;;
21258;SDS011;10787;53.364;-1.480;2023-12-14T12:59:17;9.00;;;6.17;;
21258;SDS011;10787;53.364;-1.480;2023-12-14T13:02:01;10.50;;;6.50;;
21258;SDS011;10787;53.364;-1.480;2023-12-14T13:04:46;10.37;;;6.93;;
21258;SDS011;10787;53.364;-1.480;2023-12-14T13:07:30;9.53;;;6.10;;
21258;SDS011;10787;53.364;-1.480;2023-12-14T13:10:15;9.30;;;6.10;;
21258;SDS011;10787;53.364;-1.480;2023-12-14T13:13:01;9.37;;;6.50;;
21258;SDS011;10787;53.364;-1.480;2023-12-14T13:15:46;8.67;;;6.10;;
21258;SDS011;10787;53.364;-1.480;2023-12-14T13:18:30;9.10;;;6.20;;
21258;SDS011;10787;53.364;-1.480;2023-12-14T13:21:15;9.03;;;6.30;;
21258;SDS011;10787;53.364;-1.480;2023-12-14T13:24:00;8.93;;;5.97;;
21258;SDS011;10787;53.364;-1.480;2023-12-14T13:26:44;6.47;;;5.10;;
21258;SDS011;10787;53.364;-1.480;2023-12-14T13:29:30;6.77;;;4.80;;
21258;SDS011;10787;53.364;-1.480;2023-12-14T13:32:15;6.83;;;4.63;;
21258;SDS011;10787;53.364;-1.480;2023-12-14T13:34:59;5.80;;;4.47;;
21258;SDS011;10787;53.364;-1.480;2023-12-14T13:37:43;5.70;;;4.63;;
21258;SDS011;10787;53.364;-1.480;2023-12-14T13:40:28;7.37;;;4.87;;
21258;SDS011;10787;53.364;-1.480;2023-12-14T13:43:13;7.27;;;5.37;;
21258;SDS011;10787;53.364;-1.480;2023-12-14T13:45:58;10.97;;;5.77;;
21258;SDS011;10787;53.364;-1.480;2023-12-14T13:48:42;9.17;;;5.50;;
21258;SDS011;10787;53.364;-1.480;2023-12-14T13:51:26;8.60;;;5.73;;
21258;SDS011;10787;53.364;-1.480;2023-12-14T13:54:11;9.87;;;6.20;;
21258;SDS011;10787;53.364;-1.480;2023-12-14T13:56:56;9.03;;;5.93;;
21258;SDS011;10787;53.364;-1.480;2023-12-14T13:59:40;9.63;;;6.40;;
21258;SDS011;10787;53.364;-1.480;2023-12-14T14:02:24;10.73;;;6.47;;
21258;SDS011;10787;53.364;-1.480;2023-12-14T14:05:12;8.70;;;6.23;;
21258;SDS011;10787;53.364;-1.480;2023-12-14T14:07:57;9.60;;;6.30;;
21258;SDS011;10787;53.364;-1.480;2023-12-14T14:10:41;11.40;;;6.23;;
21258;SDS011;10787;53.364;-1.480;2023-12-14T14:13:26;13.27;;;6.13;;
21258;SDS011;10787;53.364;-1.480;2023-12-14T14:16:11;9.30;;;6.00;;
21258;SDS011;10787;53.364;-1.480;2023-12-14T14:18:55;11.80;;;6.63;;
21258;SDS011;10787;53.364;-1.480;2023-12-14T14:21:39;16.63;;;8.00;;
21258;SDS011;10787;53.364;-1.480;2023-12-14T14:24:23;19.95;;;8.55;;
21258;SDS011;10787;53.364;-1.480;2023-12-14T14:27:08;16.77;;;8.50;;
21258;SDS011;10787;53.364;-1.480;2023-12-14T14:29:52;28.35;;;9.75;;
21258;SDS011;10787;53.364;-1.480;2023-12-14T14:32:39;41.80;;;16.73;;
21258;SDS011;10787;53.364;-1.480;2023-12-14T14:35:23;52.05;;;20.23;;
21258;SDS011;10787;53.364;-1.480;2023-12-14T14:38:07;35.90;;;14.43;;
21258;SDS011;10787;53.364;-1.480;2023-12-14T14:40:51;28.53;;;11.00;;
21258;SDS011;10787;53.364;-1.480;2023-12-14T14:43:36;32.00;;;12.10;;
21258;SDS011;10787;53.364;-1.480;2023-12-14T14:46:20;26.33;;;10.13;;
21258;SDS011;10787;53.364;-1.480;2023-12-14T14:49:04;28.80;;;10.30;;
21258;SDS011;10787;53.364;-1.480;2023-12-14T14:51:48;30.83;;;11.40;;
21258;SDS011;10787;53.364;-1.480;2023-12-14T14:54:32;28.27;;;10.30;;
21258;SDS011;10787;53.364;-1.480;2023-12-14T14:57:16;28.50;;;9.90;;
21258;SDS011;10787;53.364;-1.480;2023-12-14T15:00:01;34.63;;;12.03;;
21258;SDS011;10787;53.364;-1.480;2023-12-14T15:02:45;31.27;;;11.53;;
21258;SDS011;10787;53.364;-1.480;2023-12-14T15:05:29;36.37;;;13.00;;
21258;SDS011;10787;53.364;-1.480;2023-12-14T15:08:15;38.20;;;14.33;;
21258;SDS011;10787;53.364;-1.480;2023-12-14T15:10:59;55.50;;;25.80;;
21258;SDS011;10787;53.364;-1.480;2023-12-14T15:13:43;42.43;;;19.57;;
21258;SDS011;10787;53.364;-1.480;2023-12-14T15:16:27;32.50;;;13.00;;
21258;SDS011;10787;53.364;-1.480;2023-12-14T15:19:12;32.20;;;11.80;;
21258;SDS011;10787;53.364;-1.480;2023-12-14T15:21:56;35.53;;;15.50;;
21258;SDS011;10787;53.364;-1.480;2023-12-14T15:24:40;31.67;;;14.07;;
21258;SDS011;10787;53.364;-1.480;2023-12-14T15:27:25;28.03;;;12.37;;
21258;SDS011;10787;53.364;-1.480;2023-12-14T15:30:10;26.87;;;9.30;;
21258;SDS011;10787;53.364;-1.480;2023-12-14T15:32:55;28.23;;;10.23;;
21258;SDS011;10787;53.364;-1.480;2023-12-14T15:35:39;25.60;;;9.00;;
21258;SDS011;10787;53.364;-1.480;2023-12-14T15:38:24;25.43;;;8.83;;
21258;SDS011;10787;53.364;-1.480;2023-12-14T15:41:08;27.93;;;8.47;;
21258;SDS011;10787;53.364;-1.480;2023-12-14T15:43:53;32.27;;;10.00;;
21258;SDS011;10787;53.364;-1.480;2023-12-14T15:46:37;39.23;;;15.90;;
21258;SDS011;10787;53.364;-1.480;2023-12-14T15:49:22;41.90;;;20.70;;
21258;SDS011;10787;53.364;-1.480;2023-12-14T15:52:06;43.60;;;19.80;;
21258;SDS011;10787;53.364;-1.480;2023-12-14T15:54:50;37.47;;;16.33;;
21258;SDS011;10787;53.364;-1.480;2023-12-14T15:57:34;35.43;;;15.33;;
21258;SDS011;10787;53.364;-1.480;2023-12-14T16:00:18;36.57;;;12.90;;
21258;SDS011;10787;53.364;-1.480;2023-12-14T16:03:02;31.60;;;9.83;;
21258;SDS011;10787;53.364;-1.480;2023-12-14T16:05:47;24.23;;;5.97;;
21258;SDS011;10787;53.364;-1.480;2023-12-14T16:08:31;26.13;;;6.80;;
21258;SDS011;10787;53.364;-1.480;2023-12-14T16:11:16;27.67;;;6.50;;